sensor_id;sensor_type;location;lat;lon;timestamp;P1;durP1;ratioP1;P2;durP2;ratioP2
79403;SDS011;68858;48.642;9.142;2023-09-30T00:02:21;7.30;;;4.23;;
79403;SDS011;68858;48.642;9.142;2023-09-30T00:04:47;6.00;;;3.50;;
79403;SDS011;68858;48.642;9.142;2023-09-30T00:07:12;7.00;;;3.37;;
79403;SDS011;68858;48.642;9.142;2023-09-30T00:09:38;6.73;;;3.70;;
79403;SDS011;68858;48.642;9.142;2023-09-30T00:12:03;6.50;;;3.33;;
79403;SDS011;68858;48.642;9.142;2023-09-30T00:14:29;5.57;;;3.00;;
79403;SDS011;68858;48.642;9.142;2023-09-30T00:16:54;5.37;;;3.33;;
79403;SDS011;68858;48.642;9.142;2023-09-30T00:19:20;10.47;;;5.73;;
79403;SDS011;68858;48.642;9.142;2023-09-30T00:21:47;8.03;;;4.33;;
79403;SDS011;68858;48.642;9.142;2023-09-30T00:24:13;7.23;;;3.70;;
79403;SDS011;68858;48.642;9.142;2023-09-30T00:26:38;7.63;;;4.13;;
79403;SDS011;68858;48.642;9.142;2023-09-30T00:29:04;9.63;;;4.93;;
79403;SDS011;68858;48.642;9.142;2023-09-30T00:31:30;10.77;;;5.33;;
79403;SDS011;68858;48.642;9.142;2023-09-30T00:33:55;6.83;;;3.67;;
79403;SDS011;68858;48.642;9.142;2023-09-30T00:36:21;5.57;;;3.30;;
79403;SDS011;68858;48.642;9.142;2023-09-30T00:38:46;6.97;;;3.77;;
79403;SDS011;68858;48.642;9.142;2023-09-30T00:41:12;6.17;;;3.50;;
79403;SDS011;68858;48.642;9.142;2023-09-30T00:43:37;6.70;;;3.57;;
79403;SDS011;68858;48.642;9.142;2023-09-30T00:48:50;6.77;;;3.20;;
79403;SDS011;68858;48.642;9.142;2023-09-30T00:51:15;6.93;;;3.03;;
79403;SDS011;68858;48.642;9.142;2023-09-30T00:53:41;5.90;;;3.10;;
79403;SDS011;68858;48.642;9.142;2023-09-30T00:56:06;7.87;;;3.53;;
79403;SDS011;68858;48.642;9.142;2023-09-30T00:58:32;5.77;;;3.30;;
79403;SDS011;68858;48.642;9.142;2023-09-30T01:00:59;12.67;;;6.43;;
79403;SDS011;68858;48.642;9.142;2023-09-30T01:03:24;12.63;;;6.57;;
79403;SDS011;68858;48.642;9.142;2023-09-30T01:05:50;13.03;;;6.83;;
79403;SDS011;68858;48.642;9.142;2023-09-30T01:08:16;11.40;;;6.50;;
79403;SDS011;68858;48.642;9.142;2023-09-30T01:10:41;13.97;;;6.50;;
79403;SDS011;68858;48.642;9.142;2023-09-30T01:13:07;10.90;;;5.80;;
79403;SDS011;68858;48.642;9.142;2023-09-30T01:15:32;12.47;;;5.90;;
79403;SDS011;68858;48.642;9.142;2023-09-30T01:17:58;8.50;;;4.73;;
79403;SDS011;68858;48.642;9.142;2023-09-30T01:20:23;7.60;;;4.03;;
79403;SDS011;68858;48.642;9.142;2023-09-30T01:22:48;6.77;;;3.80;;
79403;SDS011;68858;48.642;9.142;2023-09-30T01:25:14;7.63;;;3.70;;
79403;SDS011;68858;48.642;9.142;2023-09-30T01:27:39;5.60;;;3.30;;
79403;SDS011;68858;48.642;9.142;2023-09-30T01:30:05;7.23;;;3.43;;
79403;SDS011;68858;48.642;9.142;2023-09-30T01:32:31;7.03;;;3.80;;
79403;SDS011;68858;48.642;9.142;2023-09-30T01:34:56;6.20;;;3.57;;
79403;SDS011;68858;48.642;9.142;2023-09-30T01:37:21;7.10;;;3.60;;
79403;SDS011;68858;48.642;9.142;2023-09-30T01:39:46;5.50;;;3.10;;
79403;SDS011;68858;48.642;9.142;2023-09-30T01:42:15;6.10;;;3.43;;
79403;SDS011;68858;48.642;9.142;2023-09-30T01:44:40;6.50;;;2.90;;
79403;SDS011;68858;48.642;9.142;2023-09-30T01:47:05;6.10;;;3.13;;
79403;SDS011;68858;48.642;9.142;2023-09-30T01:49:31;5.13;;;2.87;;
79403;SDS011;68858;48.642;9.142;2023-09-30T01:51:56;5.50;;;3.00;;
79403;SDS011;68858;48.642;9.142;2023-09-30T01:54:22;5.90;;;3.40;;
79403;SDS011;68858;48.642;9.142;2023-09-30T01:56:47;8.30;;;3.80;;
79403;SDS011;68858;48.642;9.142;2023-09-30T01:59:12;10.07;;;5.53;;
79403;SDS011;68858;48.642;9.142;2023-09-30T02:01:38;12.53;;;6.33;;
79403;SDS011;68858;48.642;9.142;2023-09-30T02:04:03;12.50;;;6.50;;
79403;SDS011;68858;48.642;9.142;2023-09-30T02:06:31;10.33;;;6.00;;
79403;SDS011;68858;48.642;9.142;2023-09-30T02:08:56;11.13;;;6.03;;
79403;SDS011;68858;48.642;9.142;2023-09-30T02:11:22;9.07;;;5.17;;
79403;SDS011;68858;48.642;9.142;2023-09-30T02:13:47;14.37;;;6.47;;
79403;SDS011;68858;48.642;9.142;2023-09-30T02:16:13;10.57;;;5.60;;
79403;SDS011;68858;48.642;9.142;2023-09-30T02:18:39;9.33;;;5.60;;
79403;SDS011;68858;48.642;9.142;2023-09-30T02:21:06;10.40;;;5.50;;
79403;SDS011;68858;48.642;9.142;2023-09-30T02:23:33;8.03;;;4.90;;
79403;SDS011;68858;48.642;9.142;2023-09-30T02:25:59;7.57;;;4.73;;
79403;SDS011;68858;48.642;9.142;2023-09-30T02:28:25;8.33;;;4.63;;
79403;SDS011;68858;48.642;9.142;2023-09-30T02:30:50;9.70;;;4.47;;
79403;SDS011;68858;48.642;9.142;2023-09-30T02:33:15;8.73;;;4.43;;
79403;SDS011;68858;48.642;9.142;2023-09-30T02:35:45;9.57;;;5.07;;
79403;SDS011;68858;48.642;9.142;2023-09-30T02:38:11;7.77;;;4.33;;
79403;SDS011;68858;48.642;9.142;2023-09-30T02:40:37;8.43;;;4.50;;
79403;SDS011;68858;48.642;9.142;2023-09-30T02:43:03;9.10;;;4.77;;
79403;SDS011;68858;48.642;9.142;2023-09-30T02:45:29;7.03;;;4.33;;
79403;SDS011;68858;48.642;9.142;2023-09-30T02:47:54;8.90;;;4.30;;
79403;SDS011;68858;48.642;9.142;2023-09-30T02:50:20;6.60;;;4.37;;
79403;SDS011;68858;48.642;9.142;2023-09-30T02:52:46;7.80;;;4.47;;
79403;SDS011;68858;48.642;9.142;2023-09-30T02:55:11;7.20;;;4.07;;
79403;SDS011;68858;48.642;9.142;2023-09-30T02:57:37;9.30;;;4.27;;
79403;SDS011;68858;48.642;9.142;2023-09-30T03:00:03;7.93;;;4.27;;
79403;SDS011;68858;48.642;9.142;2023-09-30T03:02:39;6.63;;;3.67;;
79403;SDS011;68858;48.642;9.142;2023-09-30T03:05:04;6.60;;;3.77;;
79403;SDS011;68858;48.642;9.142;2023-09-30T03:07:30;6.73;;;3.97;;
79403;SDS011;68858;48.642;9.142;2023-09-30T03:09:58;6.93;;;4.00;;
79403;SDS011;68858;48.642;9.142;2023-09-30T03:12:25;6.80;;;4.10;;
79403;SDS011;68858;48.642;9.142;2023-09-30T03:14:51;7.03;;;3.70;;
79403;SDS011;68858;48.642;9.142;2023-09-30T03:17:16;6.87;;;3.70;;
79403;SDS011;68858;48.642;9.142;2023-09-30T03:19:42;6.03;;;3.57;;
79403;SDS011;68858;48.642;9.142;2023-09-30T03:22:08;6.27;;;3.40;;
79403;SDS011;68858;48.642;9.142;2023-09-30T03:24:36;6.00;;;3.40;;
79403;SDS011;68858;48.642;9.142;2023-09-30T03:27:02;4.30;;;2.90;;
79403;SDS011;68858;48.642;9.142;2023-09-30T03:29:28;6.10;;;3.17;;
79403;SDS011;68858;48.642;9.142;2023-09-30T03:31:53;6.47;;;3.27;;
79403;SDS011;68858;48.642;9.142;2023-09-30T03:34:19;8.00;;;4.13;;
79403;SDS011;68858;48.642;9.142;2023-09-30T03:36:45;9.60;;;4.50;;
79403;SDS011;68858;48.642;9.142;2023-09-30T03:39:10;6.43;;;3.60;;
79403;SDS011;68858;48.642;9.142;2023-09-30T03:41:39;7.70;;;4.27;;
79403;SDS011;68858;48.642;9.142;2023-09-30T03:44:05;7.93;;;3.70;;
79403;SDS011;68858;48.642;9.142;2023-09-30T03:46:30;9.90;;;4.60;;
79403;SDS011;68858;48.642;9.142;2023-09-30T03:48:56;8.23;;;4.37;;
79403;SDS011;68858;48.642;9.142;2023-09-30T03:51:21;7.63;;;4.37;;
79403;SDS011;68858;48.642;9.142;2023-09-30T03:53:50;8.90;;;4.73;;
79403;SDS011;68858;48.642;9.142;2023-09-30T03:56:15;7.93;;;4.53;;
79403;SDS011;68858;48.642;9.142;2023-09-30T03:58:41;8.70;;;4.43;;
79403;SDS011;68858;48.642;9.142;2023-09-30T04:01:08;7.23;;;4.30;;
79403;SDS011;68858;48.642;9.142;2023-09-30T04:03:36;7.17;;;4.33;;
79403;SDS011;68858;48.642;9.142;2023-09-30T04:06:04;6.57;;;3.90;;
79403;SDS011;68858;48.642;9.142;2023-09-30T04:08:29;6.07;;;3.63;;
79403;SDS011;68858;48.642;9.142;2023-09-30T04:10:54;6.53;;;3.80;;
79403;SDS011;68858;48.642;9.142;2023-09-30T04:13:20;6.40;;;3.90;;
79403;SDS011;68858;48.642;9.142;2023-09-30T04:15:46;9.43;;;4.20;;
79403;SDS011;68858;48.642;9.142;2023-09-30T04:18:12;7.27;;;3.97;;
79403;SDS011;68858;48.642;9.142;2023-09-30T04:20:37;8.60;;;3.93;;
79403;SDS011;68858;48.642;9.142;2023-09-30T04:23:04;7.47;;;4.23;;
79403;SDS011;68858;48.642;9.142;2023-09-30T04:25:31;8.37;;;4.40;;
79403;SDS011;68858;48.642;9.142;2023-09-30T04:27:57;7.37;;;4.03;;
79403;SDS011;68858;48.642;9.142;2023-09-30T04:30:22;8.60;;;4.13;;
79403;SDS011;68858;48.642;9.142;2023-09-30T04:32:48;8.43;;;4.73;;
79403;SDS011;68858;48.642;9.142;2023-09-30T04:35:13;9.63;;;4.57;;
79403;SDS011;68858;48.642;9.142;2023-09-30T04:37:38;6.77;;;4.00;;
79403;SDS011;68858;48.642;9.142;2023-09-30T04:40:04;7.30;;;3.83;;
79403;SDS011;68858;48.642;9.142;2023-09-30T04:42:40;7.90;;;4.33;;
79403;SDS011;68858;48.642;9.142;2023-09-30T04:45:10;7.93;;;4.27;;
79403;SDS011;68858;48.642;9.142;2023-09-30T04:47:36;6.70;;;4.07;;
79403;SDS011;68858;48.642;9.142;2023-09-30T04:50:03;7.40;;;3.97;;
79403;SDS011;68858;48.642;9.142;2023-09-30T04:52:33;8.43;;;4.30;;
79403;SDS011;68858;48.642;9.142;2023-09-30T04:54:58;6.47;;;4.10;;
79403;SDS011;68858;48.642;9.142;2023-09-30T04:57:25;7.23;;;4.43;;
79403;SDS011;68858;48.642;9.142;2023-09-30T04:59:51;9.47;;;4.53;;
79403;SDS011;68858;48.642;9.142;2023-09-30T05:02:16;7.23;;;4.23;;
79403;SDS011;68858;48.642;9.142;2023-09-30T05:04:42;7.20;;;3.60;;
79403;SDS011;68858;48.642;9.142;2023-09-30T05:07:10;6.70;;;4.07;;
79403;SDS011;68858;48.642;9.142;2023-09-30T05:09:37;6.67;;;3.43;;
79403;SDS011;68858;48.642;9.142;2023-09-30T05:12:03;6.67;;;4.00;;
79403;SDS011;68858;48.642;9.142;2023-09-30T05:14:29;6.13;;;3.90;;
79403;SDS011;68858;48.642;9.142;2023-09-30T05:16:54;9.03;;;4.10;;
79403;SDS011;68858;48.642;9.142;2023-09-30T05:19:21;7.50;;;4.40;;
79403;SDS011;68858;48.642;9.142;2023-09-30T05:21:47;9.10;;;4.30;;
79403;SDS011;68858;48.642;9.142;2023-09-30T05:24:12;7.07;;;4.47;;
79403;SDS011;68858;48.642;9.142;2023-09-30T05:26:37;6.97;;;4.53;;
79403;SDS011;68858;48.642;9.142;2023-09-30T05:29:03;8.90;;;5.03;;
79403;SDS011;68858;48.642;9.142;2023-09-30T05:31:28;5.40;;;3.30;;
79403;SDS011;68858;48.642;9.142;2023-09-30T05:33:54;9.03;;;4.93;;
79403;SDS011;68858;48.642;9.142;2023-09-30T05:36:20;7.87;;;4.83;;
79403;SDS011;68858;48.642;9.142;2023-09-30T05:38:45;7.53;;;4.37;;
79403;SDS011;68858;48.642;9.142;2023-09-30T05:41:13;6.43;;;4.60;;
79403;SDS011;68858;48.642;9.142;2023-09-30T05:43:39;7.23;;;3.80;;
79403;SDS011;68858;48.642;9.142;2023-09-30T05:46:05;8.80;;;4.73;;
79403;SDS011;68858;48.642;9.142;2023-09-30T05:48:31;7.60;;;4.50;;
79403;SDS011;68858;48.642;9.142;2023-09-30T05:50:56;6.90;;;4.10;;
79403;SDS011;68858;48.642;9.142;2023-09-30T05:53:21;7.17;;;3.93;;
79403;SDS011;68858;48.642;9.142;2023-09-30T05:55:47;8.13;;;4.97;;
79403;SDS011;68858;48.642;9.142;2023-09-30T05:58:13;7.90;;;4.53;;
79403;SDS011;68858;48.642;9.142;2023-09-30T06:00:40;8.47;;;4.20;;
79403;SDS011;68858;48.642;9.142;2023-09-30T06:03:07;6.97;;;3.93;;
79403;SDS011;68858;48.642;9.142;2023-09-30T06:05:32;6.43;;;4.10;;
79403;SDS011;68858;48.642;9.142;2023-09-30T06:07:59;8.47;;;3.90;;
79403;SDS011;68858;48.642;9.142;2023-09-30T06:10:27;7.07;;;4.03;;
79403;SDS011;68858;48.642;9.142;2023-09-30T06:12:53;6.73;;;4.10;;
79403;SDS011;68858;48.642;9.142;2023-09-30T06:15:23;6.67;;;3.93;;
79403;SDS011;68858;48.642;9.142;2023-09-30T06:17:50;5.93;;;3.97;;
79403;SDS011;68858;48.642;9.142;2023-09-30T06:20:17;6.63;;;3.50;;
79403;SDS011;68858;48.642;9.142;2023-09-30T06:22:43;8.20;;;4.10;;
79403;SDS011;68858;48.642;9.142;2023-09-30T06:25:14;6.33;;;3.47;;
79403;SDS011;68858;48.642;9.142;2023-09-30T06:27:41;6.67;;;3.60;;
79403;SDS011;68858;48.642;9.142;2023-09-30T06:30:07;6.77;;;4.03;;
79403;SDS011;68858;48.642;9.142;2023-09-30T06:32:34;7.13;;;3.20;;
79403;SDS011;68858;48.642;9.142;2023-09-30T06:35:00;7.20;;;3.67;;
79403;SDS011;68858;48.642;9.142;2023-09-30T06:37:27;5.03;;;3.33;;
79403;SDS011;68858;48.642;9.142;2023-09-30T06:39:54;7.43;;;3.80;;
79403;SDS011;68858;48.642;9.142;2023-09-30T06:42:20;6.97;;;3.90;;
79403;SDS011;68858;48.642;9.142;2023-09-30T06:44:46;6.47;;;3.67;;
79403;SDS011;68858;48.642;9.142;2023-09-30T06:47:11;8.47;;;3.83;;
79403;SDS011;68858;48.642;9.142;2023-09-30T06:49:37;6.60;;;3.70;;
79403;SDS011;68858;48.642;9.142;2023-09-30T06:52:03;6.90;;;3.73;;
79403;SDS011;68858;48.642;9.142;2023-09-30T06:54:28;7.30;;;4.13;;
79403;SDS011;68858;48.642;9.142;2023-09-30T06:56:56;5.97;;;3.50;;
79403;SDS011;68858;48.642;9.142;2023-09-30T06:59:21;6.77;;;3.70;;
79403;SDS011;68858;48.642;9.142;2023-09-30T07:01:47;4.60;;;3.40;;
79403;SDS011;68858;48.642;9.142;2023-09-30T07:04:12;8.80;;;6.03;;
79403;SDS011;68858;48.642;9.142;2023-09-30T07:06:37;5.57;;;3.83;;
79403;SDS011;68858;48.642;9.142;2023-09-30T07:09:03;5.00;;;3.67;;
79403;SDS011;68858;48.642;9.142;2023-09-30T07:11:29;7.80;;;3.90;;
79403;SDS011;68858;48.642;9.142;2023-09-30T07:13:57;7.60;;;4.10;;
79403;SDS011;68858;48.642;9.142;2023-09-30T07:16:22;4.87;;;3.47;;
79403;SDS011;68858;48.642;9.142;2023-09-30T07:18:48;8.17;;;4.10;;
79403;SDS011;68858;48.642;9.142;2023-09-30T07:21:13;5.67;;;3.70;;
79403;SDS011;68858;48.642;9.142;2023-09-30T07:23:39;5.83;;;3.60;;
79403;SDS011;68858;48.642;9.142;2023-09-30T07:26:04;5.60;;;3.70;;
79403;SDS011;68858;48.642;9.142;2023-09-30T07:28:29;5.37;;;3.73;;
79403;SDS011;68858;48.642;9.142;2023-09-30T07:30:55;5.97;;;3.40;;
79403;SDS011;68858;48.642;9.142;2023-09-30T07:33:20;6.47;;;3.80;;
79403;SDS011;68858;48.642;9.142;2023-09-30T07:35:46;5.30;;;3.40;;
79403;SDS011;68858;48.642;9.142;2023-09-30T07:38:11;6.00;;;3.70;;
79403;SDS011;68858;48.642;9.142;2023-09-30T07:40:36;7.33;;;3.63;;
79403;SDS011;68858;48.642;9.142;2023-09-30T07:43:02;6.27;;;3.97;;
79403;SDS011;68858;48.642;9.142;2023-09-30T07:45:27;5.93;;;3.80;;
79403;SDS011;68858;48.642;9.142;2023-09-30T07:47:53;5.13;;;3.60;;
79403;SDS011;68858;48.642;9.142;2023-09-30T07:50:18;5.87;;;4.13;;
79403;SDS011;68858;48.642;9.142;2023-09-30T07:52:44;7.00;;;3.77;;
79403;SDS011;68858;48.642;9.142;2023-09-30T07:55:09;6.57;;;3.60;;
79403;SDS011;68858;48.642;9.142;2023-09-30T07:57:35;5.50;;;3.97;;
79403;SDS011;68858;48.642;9.142;2023-09-30T08:00:01;7.13;;;3.87;;
79403;SDS011;68858;48.642;9.142;2023-09-30T08:02:28;5.23;;;3.70;;
79403;SDS011;68858;48.642;9.142;2023-09-30T08:04:58;6.90;;;4.67;;
79403;SDS011;68858;48.642;9.142;2023-09-30T08:07:24;5.40;;;4.30;;
79403;SDS011;68858;48.642;9.142;2023-09-30T08:09:50;6.13;;;3.93;;
79403;SDS011;68858;48.642;9.142;2023-09-30T08:12:16;6.60;;;4.50;;
79403;SDS011;68858;48.642;9.142;2023-09-30T08:14:41;4.83;;;4.00;;
79403;SDS011;68858;48.642;9.142;2023-09-30T08:17:09;5.70;;;4.37;;
79403;SDS011;68858;48.642;9.142;2023-09-30T08:19:35;5.60;;;3.90;;
79403;SDS011;68858;48.642;9.142;2023-09-30T08:22:01;3.63;;;3.20;;
79403;SDS011;68858;48.642;9.142;2023-09-30T08:24:28;4.93;;;4.10;;
79403;SDS011;68858;48.642;9.142;2023-09-30T08:26:53;4.97;;;3.90;;
79403;SDS011;68858;48.642;9.142;2023-09-30T08:29:20;4.83;;;3.77;;
79403;SDS011;68858;48.642;9.142;2023-09-30T08:31:47;5.03;;;4.20;;
79403;SDS011;68858;48.642;9.142;2023-09-30T08:34:12;5.87;;;4.43;;
79403;SDS011;68858;48.642;9.142;2023-09-30T08:36:40;4.40;;;3.60;;
79403;SDS011;68858;48.642;9.142;2023-09-30T08:39:06;4.93;;;3.73;;
79403;SDS011;68858;48.642;9.142;2023-09-30T08:41:32;5.60;;;3.90;;
79403;SDS011;68858;48.642;9.142;2023-09-30T08:44:02;7.27;;;5.17;;
79403;SDS011;68858;48.642;9.142;2023-09-30T08:46:32;5.03;;;3.70;;
79403;SDS011;68858;48.642;9.142;2023-09-30T08:48:59;5.47;;;3.83;;
79403;SDS011;68858;48.642;9.142;2023-09-30T08:51:26;5.57;;;3.83;;
79403;SDS011;68858;48.642;9.142;2023-09-30T08:53:52;4.67;;;3.83;;
79403;SDS011;68858;48.642;9.142;2023-09-30T08:56:19;5.60;;;3.83;;
79403;SDS011;68858;48.642;9.142;2023-09-30T08:58:46;4.30;;;3.90;;
79403;SDS011;68858;48.642;9.142;2023-09-30T09:01:12;6.43;;;4.23;;
79403;SDS011;68858;48.642;9.142;2023-09-30T09:03:38;4.30;;;3.53;;
79403;SDS011;68858;48.642;9.142;2023-09-30T09:06:04;6.33;;;3.93;;
79403;SDS011;68858;48.642;9.142;2023-09-30T09:08:29;5.37;;;3.97;;
79403;SDS011;68858;48.642;9.142;2023-09-30T09:10:58;5.70;;;3.80;;
79403;SDS011;68858;48.642;9.142;2023-09-30T09:13:25;6.00;;;4.00;;
79403;SDS011;68858;48.642;9.142;2023-09-30T09:16:10;5.47;;;4.10;;
79403;SDS011;68858;48.642;9.142;2023-09-30T09:18:36;7.10;;;4.37;;
79403;SDS011;68858;48.642;9.142;2023-09-30T09:21:11;5.70;;;3.93;;
79403;SDS011;68858;48.642;9.142;2023-09-30T09:23:41;4.13;;;3.70;;
79403;SDS011;68858;48.642;9.142;2023-09-30T09:26:08;4.97;;;3.47;;
79403;SDS011;68858;48.642;9.142;2023-09-30T09:28:35;4.87;;;3.90;;
79403;SDS011;68858;48.642;9.142;2023-09-30T09:31:01;5.53;;;3.93;;
79403;SDS011;68858;48.642;9.142;2023-09-30T09:33:36;5.40;;;3.60;;
79403;SDS011;68858;48.642;9.142;2023-09-30T09:36:04;7.57;;;4.17;;
79403;SDS011;68858;48.642;9.142;2023-09-30T09:38:43;5.60;;;3.93;;
79403;SDS011;68858;48.642;9.142;2023-09-30T09:41:09;6.87;;;4.37;;
79403;SDS011;68858;48.642;9.142;2023-09-30T09:43:35;6.07;;;4.43;;
79403;SDS011;68858;48.642;9.142;2023-09-30T09:46:01;4.97;;;3.93;;
79403;SDS011;68858;48.642;9.142;2023-09-30T09:48:29;5.00;;;3.80;;
79403;SDS011;68858;48.642;9.142;2023-09-30T09:50:54;6.73;;;4.17;;
79403;SDS011;68858;48.642;9.142;2023-09-30T09:53:20;6.43;;;3.83;;
79403;SDS011;68858;48.642;9.142;2023-09-30T09:55:45;5.63;;;3.73;;
79403;SDS011;68858;48.642;9.142;2023-09-30T09:58:11;5.97;;;3.77;;
79403;SDS011;68858;48.642;9.142;2023-09-30T10:00:38;6.93;;;3.63;;
79403;SDS011;68858;48.642;9.142;2023-09-30T10:03:03;7.03;;;4.43;;
79403;SDS011;68858;48.642;9.142;2023-09-30T10:05:29;6.10;;;4.00;;
79403;SDS011;68858;48.642;9.142;2023-09-30T10:07:59;5.87;;;3.93;;
79403;SDS011;68858;48.642;9.142;2023-09-30T10:10:27;6.60;;;4.13;;
79403;SDS011;68858;48.642;9.142;2023-09-30T10:12:53;6.37;;;4.43;;
79403;SDS011;68858;48.642;9.142;2023-09-30T10:18:00;6.40;;;4.17;;
79403;SDS011;68858;48.642;9.142;2023-09-30T10:20:42;4.78;;;3.63;;
79403;SDS011;68858;48.642;9.142;2023-09-30T10:23:23;6.43;;;4.40;;
79403;SDS011;68858;48.642;9.142;2023-09-30T10:26:14;5.00;;;3.27;;
79403;SDS011;68858;48.642;9.142;2023-09-30T10:28:40;6.22;;;3.55;;
79403;SDS011;68858;48.642;9.142;2023-09-30T10:31:08;5.57;;;3.45;;
79403;SDS011;68858;48.642;9.142;2023-09-30T10:36:36;5.63;;;4.05;;
79403;SDS011;68858;48.642;9.142;2023-09-30T10:39:05;5.55;;;4.38;;
79403;SDS011;68858;48.642;9.142;2023-09-30T10:46:52;7.00;;;4.70;;
79403;SDS011;68858;48.642;9.142;2023-09-30T10:51:49;6.57;;;4.70;;
79403;SDS011;68858;48.642;9.142;2023-09-30T10:54:18;7.10;;;5.28;;
79403;SDS011;68858;48.642;9.142;2023-09-30T10:56:48;8.23;;;5.00;;
79403;SDS011;68858;48.642;9.142;2023-09-30T10:59:20;6.13;;;4.47;;
79403;SDS011;68858;48.642;9.142;2023-09-30T11:01:47;6.57;;;4.25;;
79403;SDS011;68858;48.642;9.142;2023-09-30T11:04:14;5.65;;;4.30;;
79403;SDS011;68858;48.642;9.142;2023-09-30T11:06:41;7.70;;;4.68;;
79403;SDS011;68858;48.642;9.142;2023-09-30T11:09:07;7.03;;;4.93;;
79403;SDS011;68858;48.642;9.142;2023-09-30T11:14:17;8.27;;;5.07;;
79403;SDS011;68858;48.642;9.142;2023-09-30T11:16:46;8.87;;;4.97;;
79403;SDS011;68858;48.642;9.142;2023-09-30T11:19:13;8.03;;;5.07;;
79403;SDS011;68858;48.642;9.142;2023-09-30T11:21:40;6.13;;;4.33;;
79403;SDS011;68858;48.642;9.142;2023-09-30T11:24:06;7.10;;;4.90;;
79403;SDS011;68858;48.642;9.142;2023-09-30T11:26:32;6.33;;;3.77;;
79403;SDS011;68858;48.642;9.142;2023-09-30T11:29:08;7.13;;;4.40;;
79403;SDS011;68858;48.642;9.142;2023-09-30T11:31:38;7.23;;;4.40;;
79403;SDS011;68858;48.642;9.142;2023-09-30T11:34:03;6.90;;;4.37;;
79403;SDS011;68858;48.642;9.142;2023-09-30T11:36:33;7.20;;;4.87;;
79403;SDS011;68858;48.642;9.142;2023-09-30T11:39:02;6.77;;;4.33;;
79403;SDS011;68858;48.642;9.142;2023-09-30T11:41:35;7.23;;;4.47;;
79403;SDS011;68858;48.642;9.142;2023-09-30T11:46:32;6.40;;;3.93;;
79403;SDS011;68858;48.642;9.142;2023-09-30T11:49:01;8.43;;;4.73;;
79403;SDS011;68858;48.642;9.142;2023-09-30T11:51:28;7.97;;;4.80;;
79403;SDS011;68858;48.642;9.142;2023-09-30T11:53:54;6.40;;;4.30;;
79403;SDS011;68858;48.642;9.142;2023-09-30T11:56:19;8.50;;;4.90;;
79403;SDS011;68858;48.642;9.142;2023-09-30T11:58:45;7.97;;;4.47;;
79403;SDS011;68858;48.642;9.142;2023-09-30T12:01:14;7.03;;;4.10;;
79403;SDS011;68858;48.642;9.142;2023-09-30T12:03:39;6.33;;;4.10;;
79403;SDS011;68858;48.642;9.142;2023-09-30T12:06:05;7.47;;;4.87;;
79403;SDS011;68858;48.642;9.142;2023-09-30T12:08:31;8.13;;;5.27;;
79403;SDS011;68858;48.642;9.142;2023-09-30T12:10:57;6.90;;;4.80;;
79403;SDS011;68858;48.642;9.142;2023-09-30T12:13:24;7.60;;;5.27;;
79403;SDS011;68858;48.642;9.142;2023-09-30T12:15:50;7.82;;;4.80;;
79403;SDS011;68858;48.642;9.142;2023-09-30T12:18:17;6.90;;;4.75;;
79403;SDS011;68858;48.642;9.142;2023-09-30T12:20:48;6.65;;;4.70;;
79403;SDS011;68858;48.642;9.142;2023-09-30T12:23:14;7.03;;;5.07;;
79403;SDS011;68858;48.642;9.142;2023-09-30T12:25:39;9.85;;;5.30;;
79403;SDS011;68858;48.642;9.142;2023-09-30T12:28:04;8.15;;;5.43;;
79403;SDS011;68858;48.642;9.142;2023-09-30T12:30:30;7.13;;;4.93;;
79403;SDS011;68858;48.642;9.142;2023-09-30T12:32:57;6.55;;;4.60;;
79403;SDS011;68858;48.642;9.142;2023-09-30T12:35:22;6.95;;;5.03;;
79403;SDS011;68858;48.642;9.142;2023-09-30T12:37:47;7.25;;;5.28;;
79403;SDS011;68858;48.642;9.142;2023-09-30T12:40:13;7.32;;;5.50;;
79403;SDS011;68858;48.642;9.142;2023-09-30T12:42:44;8.00;;;5.30;;
79403;SDS011;68858;48.642;9.142;2023-09-30T12:45:10;6.22;;;4.50;;
79403;SDS011;68858;48.642;9.142;2023-09-30T12:47:36;8.07;;;4.82;;
79403;SDS011;68858;48.642;9.142;2023-09-30T12:50:01;7.32;;;4.72;;
79403;SDS011;68858;48.642;9.142;2023-09-30T12:52:26;6.80;;;4.60;;
79403;SDS011;68858;48.642;9.142;2023-09-30T12:54:52;6.05;;;4.47;;
79403;SDS011;68858;48.642;9.142;2023-09-30T12:57:18;5.95;;;4.60;;
79403;SDS011;68858;48.642;9.142;2023-09-30T12:59:44;6.32;;;4.25;;
79403;SDS011;68858;48.642;9.142;2023-09-30T13:02:14;5.50;;;4.20;;
79403;SDS011;68858;48.642;9.142;2023-09-30T13:04:39;6.38;;;4.22;;
79403;SDS011;68858;48.642;9.142;2023-09-30T13:07:08;8.70;;;4.38;;
79403;SDS011;68858;48.642;9.142;2023-09-30T13:09:35;7.25;;;4.70;;
79403;SDS011;68858;48.642;9.142;2023-09-30T13:12:01;6.43;;;3.90;;
79403;SDS011;68858;48.642;9.142;2023-09-30T13:14:26;6.87;;;4.20;;
79403;SDS011;68858;48.642;9.142;2023-09-30T13:16:53;7.40;;;5.07;;
79403;SDS011;68858;48.642;9.142;2023-09-30T13:19:19;6.90;;;4.50;;
79403;SDS011;68858;48.642;9.142;2023-09-30T13:21:46;7.27;;;4.53;;
79403;SDS011;68858;48.642;9.142;2023-09-30T13:24:12;7.13;;;4.90;;
79403;SDS011;68858;48.642;9.142;2023-09-30T13:26:37;6.77;;;4.33;;
79403;SDS011;68858;48.642;9.142;2023-09-30T13:29:02;7.00;;;4.63;;
79403;SDS011;68858;48.642;9.142;2023-09-30T13:31:30;7.20;;;4.50;;
79403;SDS011;68858;48.642;9.142;2023-09-30T13:33:55;8.03;;;4.77;;
79403;SDS011;68858;48.642;9.142;2023-09-30T13:36:21;6.83;;;4.00;;
79403;SDS011;68858;48.642;9.142;2023-09-30T13:38:46;8.23;;;4.53;;
79403;SDS011;68858;48.642;9.142;2023-09-30T13:41:11;8.03;;;4.20;;
79403;SDS011;68858;48.642;9.142;2023-09-30T13:43:37;6.63;;;4.77;;
79403;SDS011;68858;48.642;9.142;2023-09-30T13:46:04;8.50;;;4.57;;
79403;SDS011;68858;48.642;9.142;2023-09-30T13:48:32;7.57;;;4.50;;
79403;SDS011;68858;48.642;9.142;2023-09-30T13:51:03;6.38;;;4.63;;
79403;SDS011;68858;48.642;9.142;2023-09-30T13:53:32;6.75;;;4.25;;
79403;SDS011;68858;48.642;9.142;2023-09-30T13:55:57;5.97;;;4.40;;
79403;SDS011;68858;48.642;9.142;2023-09-30T13:58:23;5.43;;;4.18;;
79403;SDS011;68858;48.642;9.142;2023-09-30T14:00:49;5.95;;;4.22;;
79403;SDS011;68858;48.642;9.142;2023-09-30T14:03:16;6.53;;;4.15;;
79403;SDS011;68858;48.642;9.142;2023-09-30T14:05:43;7.22;;;4.75;;
79403;SDS011;68858;48.642;9.142;2023-09-30T14:08:10;5.90;;;3.90;;
79403;SDS011;68858;48.642;9.142;2023-09-30T14:10:35;5.93;;;4.38;;
79403;SDS011;68858;48.642;9.142;2023-09-30T14:13:01;5.90;;;4.40;;
79403;SDS011;68858;48.642;9.142;2023-09-30T14:15:26;7.80;;;4.20;;
79403;SDS011;68858;48.642;9.142;2023-09-30T14:17:53;6.55;;;4.32;;
79403;SDS011;68858;48.642;9.142;2023-09-30T14:20:20;6.25;;;4.28;;
79403;SDS011;68858;48.642;9.142;2023-09-30T14:22:45;6.70;;;3.90;;
79403;SDS011;68858;48.642;9.142;2023-09-30T14:25:11;6.47;;;3.80;;
79403;SDS011;68858;48.642;9.142;2023-09-30T14:27:36;7.10;;;4.75;;
79403;SDS011;68858;48.642;9.142;2023-09-30T14:30:02;6.53;;;3.97;;
79403;SDS011;68858;48.642;9.142;2023-09-30T14:32:29;6.70;;;4.40;;
79403;SDS011;68858;48.642;9.142;2023-09-30T14:34:54;6.73;;;4.37;;
79403;SDS011;68858;48.642;9.142;2023-09-30T14:37:20;8.33;;;4.93;;
79403;SDS011;68858;48.642;9.142;2023-09-30T14:39:46;6.53;;;4.63;;
79403;SDS011;68858;48.642;9.142;2023-09-30T14:42:11;6.77;;;4.23;;
79403;SDS011;68858;48.642;9.142;2023-09-30T14:44:36;5.70;;;4.03;;
79403;SDS011;68858;48.642;9.142;2023-09-30T14:47:02;7.33;;;4.40;;
79403;SDS011;68858;48.642;9.142;2023-09-30T14:49:27;7.17;;;4.20;;
79403;SDS011;68858;48.642;9.142;2023-09-30T14:51:52;6.27;;;4.07;;
79403;SDS011;68858;48.642;9.142;2023-09-30T14:54:18;7.17;;;4.80;;
79403;SDS011;68858;48.642;9.142;2023-09-30T14:56:43;6.70;;;4.30;;
79403;SDS011;68858;48.642;9.142;2023-09-30T14:59:08;9.63;;;4.17;;
79403;SDS011;68858;48.642;9.142;2023-09-30T15:01:34;6.40;;;4.20;;
79403;SDS011;68858;48.642;9.142;2023-09-30T15:03:59;6.20;;;4.30;;
79403;SDS011;68858;48.642;9.142;2023-09-30T15:06:24;5.33;;;3.97;;